Time;durP1;ratioP1;P1;durP2;ratioP2;P2;SDS_P1;SDS_P2;PMS_P1;PMS_P2;Temp;Humidity;BMP_temperature;BMP_pressure;BME280_temperature;BME280_humidity;BME280_pressure;Samples;Min_cycle;Max_cycle;Signal;HPM_P1;HPM_P2
2021/10/28 00:13:42;;;;;;;6.23;5.63;;;11.40;99.90;;;;;;5011491;28;20928;-80
2021/10/28 00:16:13;;;;;;;7.33;6.20;;;11.40;99.90;;;;;;5011060;28;20456;-80
2021/10/28 00:18:44;;;;;;;7.20;6.50;;;11.40;99.90;;;;;;5007721;28;20465;-80
2021/10/28 00:21:12;;;;;;;8.37;6.00;;;11.40;99.90;;;;;;5010749;28;20437;-79
2021/10/28 00:23:46;;;;;;;7.80;6.70;;;11.30;99.90;;;;;;5009508;28;20433;-80
2021/10/28 00:26:13;;;;;;;7.23;6.53;;;11.30;99.90;;;;;;5008938;28;21157;-80
2021/10/28 00:28:40;;;;;;;8.53;6.93;;;11.30;99.90;;;;;;5008914;28;21265;-80
2021/10/28 00:31:06;;;;;;;9.00;6.90;;;11.30;99.90;;;;;;5011959;28;20560;-80
2021/10/28 00:33:34;;;;;;;9.63;7.10;;;11.30;99.90;;;;;;5009908;28;20507;-79
2021/10/28 00:36:01;;;;;;;8.57;7.27;;;11.30;99.90;;;;;;5011204;28;20888;-80
2021/10/28 00:38:27;;;;;;;8.70;6.87;;;11.20;99.90;;;;;;5007029;28;21025;-80
2021/10/28 00:40:53;;;;;;;11.03;7.83;;;11.20;99.90;;;;;;5010556;28;20516;-80
2021/10/28 00:43:19;;;;;;;7.93;7.13;;;11.20;99.90;;;;;;5008545;28;20434;-80
2021/10/28 00:45:50;;;;;;;8.80;6.93;;;11.20;99.90;;;;;;5011346;28;21136;-80
2021/10/28 00:48:15;;;;;;;10.63;7.70;;;11.10;99.90;;;;;;5010263;28;20444;-79
2021/10/28 00:50:41;;;;;;;12.53;9.07;;;11.20;99.90;;;;;;5009373;28;20445;-80
2021/10/28 00:53:07;;;;;;;13.10;9.20;;;11.10;99.90;;;;;;5010666;28;20244;-80
2021/10/28 00:55:35;;;;;;;10.20;8.30;;;11.10;99.90;;;;;;5008241;28;20242;-80
2021/10/28 00:58:03;;;;;;;9.33;8.43;;;11.10;99.90;;;;;;5007950;28;20480;-79
2021/10/28 01:00:28;;;;;;;9.23;8.33;;;11.10;99.90;;;;;;5009705;28;20437;-79
2021/10/28 01:02:54;;;;;;;9.07;8.10;;;11.10;99.90;;;;;;5008591;28;20459;-80
2021/10/28 01:05:20;;;;;;;11.50;8.60;;;11.10;99.90;;;;;;5010478;28;21000;-79
2021/10/28 01:07:46;;;;;;;8.53;7.40;;;11.10;99.90;;;;;;5008891;28;20508;-79
2021/10/28 01:10:12;;;;;;;10.03;8.20;;;11.00;99.90;;;;;;5010467;28;20266;-80
2021/10/28 01:12:38;;;;;;;8.40;7.60;;;11.00;99.90;;;;;;5007341;28;20171;-80
2021/10/28 01:15:12;;;;;;;9.13;7.70;;;11.00;99.90;;;;;;5009663;28;20833;-80
2021/10/28 01:17:37;;;;;;;11.00;7.93;;;11.00;99.90;;;;;;5008875;28;20460;-80
2021/10/28 01:20:05;;;;;;;10.63;8.23;;;10.90;99.90;;;;;;5012923;28;20738;-80
2021/10/28 01:22:30;;;;;;;11.23;7.77;;;10.90;99.90;;;;;;5015425;28;20513;-80
2021/10/28 01:24:56;;;;;;;13.87;9.47;;;10.80;99.90;;;;;;5014891;28;20405;-80
2021/10/28 01:27:22;;;;;;;8.27;7.47;;;10.80;99.90;;;;;;5010221;28;20214;-79
2021/10/28 01:29:48;;;;;;;10.43;7.90;;;10.70;99.90;;;;;;5013031;28;20178;-80
2021/10/28 01:32:13;;;;;;;8.33;7.50;;;10.70;99.90;;;;;;5013791;28;20179;-80
2021/10/28 01:34:46;;;;;;;10.00;8.50;;;10.60;99.90;;;;;;5014506;28;20264;-80
2021/10/28 01:37:14;;;;;;;10.13;7.90;;;10.50;99.90;;;;;;5006187;28;20298;-80
2021/10/28 01:39:40;;;;;;;9.17;7.50;;;10.50;99.90;;;;;;5014917;28;20437;-80
2021/10/28 01:42:09;;;;;;;10.53;9.20;;;10.40;99.90;;;;;;5007681;28;20429;-79
2021/10/28 01:44:36;;;;;;;9.23;7.87;;;10.40;99.90;;;;;;5015671;28;20429;-80
2021/10/28 01:47:02;;;;;;;10.23;8.10;;;10.40;99.90;;;;;;5010254;28;20949;-80
2021/10/28 01:49:28;;;;;;;11.07;7.80;;;10.30;99.90;;;;;;5013967;28;20957;-80
2021/10/28 01:51:56;;;;;;;10.53;7.80;;;10.30;99.90;;;;;;5014716;28;20429;-80
2021/10/28 01:54:23;;;;;;;9.03;8.13;;;10.20;99.90;;;;;;5013560;28;20463;-80
2021/10/28 01:56:50;;;;;;;9.27;8.10;;;10.20;99.90;;;;;;5012902;28;20449;-80
2021/10/28 01:59:16;;;;;;;10.93;9.10;;;10.10;99.90;;;;;;5014712;28;20762;-80
2021/10/28 02:01:42;;;;;;;11.97;8.80;;;10.10;99.90;;;;;;5008139;28;20426;-80
2021/10/28 02:04:08;;;;;;;10.83;8.50;;;10.10;99.90;;;;;;5012548;28;20445;-79
2021/10/28 02:06:34;;;;;;;11.00;8.10;;;10.10;99.90;;;;;;5014143;28;20182;-79
2021/10/28 02:09:00;;;;;;;10.33;8.50;;;10.10;99.90;;;;;;5010991;28;20206;-79
2021/10/28 02:11:26;;;;;;;10.07;8.93;;;10.10;99.90;;;;;;5012833;28;20524;-80
2021/10/28 02:13:53;;;;;;;8.90;8.00;;;10.00;99.90;;;;;;5014882;28;20233;-79
2021/10/28 02:16:18;;;;;;;13.80;8.57;;;10.00;99.90;;;;;;5011219;28;20429;-80
2021/10/28 02:18:44;;;;;;;12.13;8.20;;;10.00;99.90;;;;;;5011500;28;20461;-79
2021/10/28 02:21:10;;;;;;;10.57;8.37;;;10.00;99.90;;;;;;5012593;28;20247;-79
2021/10/28 02:23:36;;;;;;;10.23;7.70;;;10.00;99.90;;;;;;5013028;28;20251;-79
2021/10/28 02:26:02;;;;;;;11.87;9.57;;;10.00;99.90;;;;;;5012583;28;20187;-79
2021/10/28 02:28:27;;;;;;;10.93;8.50;;;10.00;99.90;;;;;;5012355;28;20183;-79
2021/10/28 02:30:53;;;;;;;12.90;8.83;;;9.90;99.90;;;;;;5013440;28;20927;-79
2021/10/28 02:33:19;;;;;;;12.10;9.00;;;9.90;99.90;;;;;;5011383;28;20605;-80
2021/10/28 02:35:44;;;;;;;11.17;8.43;;;9.80;99.90;;;;;;5010592;28;20189;-80
2021/10/28 02:38:10;;;;;;;9.00;8.13;;;9.70;99.90;;;;;;5012700;28;20648;-79
2021/10/28 02:40:36;;;;;;;8.37;7.63;;;9.70;99.90;;;;;;5011445;28;20193;-79
2021/10/28 02:43:03;;;;;;;10.50;8.43;;;9.60;99.90;;;;;;5014374;28;20434;-80
2021/10/28 02:45:28;;;;;;;13.30;9.10;;;9.60;99.90;;;;;;5010967;28;20190;-79
2021/10/28 02:47:54;;;;;;;10.57;7.47;;;9.60;99.90;;;;;;5010048;28;20433;-79
2021/10/28 02:50:21;;;;;;;9.63;7.87;;;9.50;99.90;;;;;;5009230;28;20183;-79
2021/10/28 02:52:46;;;;;;;8.27;7.47;;;9.40;99.90;;;;;;5010775;28;20174;-79
2021/10/28 02:55:12;;;;;;;10.50;7.33;;;9.40;99.90;;;;;;5010753;28;20436;-79
2021/10/28 02:57:42;;;;;;;8.47;7.40;;;9.30;99.90;;;;;;5009611;28;20230;-79
2021/10/28 03:00:09;;;;;;;10.07;7.40;;;9.20;99.90;;;;;;5011277;28;20264;-79
2021/10/28 03:02:35;;;;;;;9.07;7.23;;;9.20;99.90;;;;;;5010685;28;20513;-79
2021/10/28 03:05:01;;;;;;;8.33;7.00;;;9.10;99.90;;;;;;5009636;28;20981;-79
2021/10/28 03:07:26;;;;;;;8.53;7.53;;;9.10;99.90;;;;;;5008594;28;20201;-79
2021/10/28 03:09:52;;;;;;;11.20;8.20;;;9.00;99.90;;;;;;5013443;28;20475;-79
2021/10/28 03:12:18;;;;;;;10.20;7.80;;;9.00;99.90;;;;;;5011237;28;20186;-79
2021/10/28 03:14:56;;;;;;;10.73;8.03;;;8.90;99.90;;;;;;5010697;28;20275;-79
2021/10/28 03:25:43;;;;;;;8.63;7.27;;;8.70;99.90;;;;;;5012383;28;20815;-79
2021/10/28 03:28:26;;;;;;;11.00;7.33;;;8.70;99.90;;;;;;5006880;28;20433;-79
2021/10/28 03:30:52;;;;;;;9.97;6.97;;;8.60;99.90;;;;;;5012080;28;20426;-79
2021/10/28 03:33:23;;;;;;;10.70;8.27;;;8.60;99.90;;;;;;5009506;28;20532;-79
2021/10/28 03:35:49;;;;;;;11.30;7.60;;;8.60;99.90;;;;;;5011312;28;20232;-79
2021/10/28 03:38:28;;;;;;;8.07;6.83;;;8.50;99.90;;;;;;5007745;28;20461;-79
2021/10/28 03:43:53;;;;;;;7.10;6.10;;;8.50;99.90;;;;;;5011055;28;20448;-79
2021/10/28 04:31:27;;;;;;;9.40;6.80;;;8.00;99.90;;;;;;5012028;28;20448;-79
2021/10/28 04:33:52;;;;;;;6.80;6.20;;;7.90;99.90;;;;;;5018682;28;20741;-79
2021/10/28 04:36:19;;;;;;;9.50;6.43;;;7.90;99.90;;;;;;5011255;28;20519;-79
2021/10/28 04:38:44;;;;;;;9.63;6.90;;;7.90;99.90;;;;;;5008229;28;20211;-79
2021/10/28 04:41:11;;;;;;;7.30;6.50;;;7.80;99.90;;;;;;5008538;28;20525;-79
2021/10/28 04:43:36;;;;;;;8.00;6.20;;;7.80;99.90;;;;;;5010401;28;20593;-79
2021/10/28 04:46:03;;;;;;;9.87;6.80;;;7.70;99.90;;;;;;5011351;28;20434;-79
2021/10/28 04:48:29;;;;;;;7.40;6.20;;;7.70;99.90;;;;;;5009403;28;20191;-79
2021/10/28 04:50:58;;;;;;;6.83;6.00;;;7.60;99.90;;;;;;5004375;28;20473;-79
2021/10/28 04:53:23;;;;;;;7.07;6.40;;;7.60;99.90;;;;;;5011959;28;20512;-79
2021/10/28 04:55:49;;;;;;;6.87;5.97;;;7.60;99.90;;;;;;5009374;28;21264;-79
2021/10/28 04:58:15;;;;;;;7.97;6.40;;;7.60;99.90;;;;;;5007704;28;20608;-79
2021/10/28 05:00:40;;;;;;;7.83;6.70;;;7.50;99.90;;;;;;5009841;28;20178;-79
2021/10/28 05:03:06;;;;;;;9.10;6.57;;;7.50;99.90;;;;;;5008128;28;20575;-79
2021/10/28 05:05:32;;;;;;;9.50;6.67;;;7.50;99.90;;;;;;5010170;28;20182;-79
2021/10/28 05:07:58;;;;;;;11.37;8.10;;;7.50;99.90;;;;;;5006873;28;20236;-79
2021/10/28 05:10:24;;;;;;;8.20;6.67;;;7.50;99.90;;;;;;5009365;28;20433;-79
2021/10/28 05:12:49;;;;;;;7.60;6.83;;;7.50;99.90;;;;;;5008876;28;20201;-79
2021/10/28 05:15:15;;;;;;;7.87;7.07;;;7.50;99.90;;;;;;5007711;28;20640;-79
2021/10/28 05:17:41;;;;;;;7.00;6.30;;;7.50;99.90;;;;;;5007924;28;20238;-79
2021/10/28 05:20:07;;;;;;;7.67;6.90;;;7.50;99.90;;;;;;5006978;28;20166;-79
2021/10/28 05:22:33;;;;;;;9.50;6.53;;;7.50;99.90;;;;;;5009379;28;20433;-79
2021/10/28 05:24:58;;;;;;;9.90;7.07;;;7.50;99.90;;;;;;5011289;28;20471;-79
2021/10/28 05:27:24;;;;;;;7.97;7.07;;;7.50;99.90;;;;;;5007850;28;20181;-79
2021/10/28 05:29:50;;;;;;;10.03;7.40;;;7.50;99.90;;;;;;5011490;28;20287;-79
2021/10/28 05:32:15;;;;;;;11.63;7.80;;;7.40;99.90;;;;;;5003422;28;20181;-79
2021/10/28 05:34:44;;;;;;;8.20;7.40;;;7.40;99.90;;;;;;5010760;28;20187;-79
2021/10/28 05:37:09;;;;;;;7.70;6.90;;;7.40;99.90;;;;;;5009518;28;20201;-79
2021/10/28 05:39:35;;;;;;;8.53;7.67;;;7.40;99.90;;;;;;5008955;28;20432;-79
2021/10/28 05:42:01;;;;;;;8.87;7.47;;;7.40;99.90;;;;;;5009631;28;20835;-79
2021/10/28 05:44:26;;;;;;;14.23;8.30;;;7.50;99.90;;;;;;5009975;28;20472;-79
2021/10/28 05:46:52;;;;;;;10.97;7.37;;;7.50;99.90;;;;;;5003880;28;20174;-79
2021/10/28 05:49:18;;;;;;;13.40;8.63;;;7.50;99.90;;;;;;5009623;28;20241;-79
2021/10/28 05:51:46;;;;;;;11.17;7.40;;;7.60;99.90;;;;;;5011567;28;20548;-79
2021/10/28 05:54:12;;;;;;;10.70;7.90;;;7.60;99.90;;;;;;5010509;28;20433;-79
2021/10/28 05:56:38;;;;;;;10.80;8.47;;;7.70;99.90;;;;;;5010998;28;20433;-79
2021/10/28 05:59:03;;;;;;;13.10;9.00;;;7.80;99.90;;;;;;5004961;28;20353;-79
2021/10/28 06:01:29;;;;;;;14.53;9.63;;;7.80;99.90;;;;;;5007016;28;20532;-79
2021/10/28 06:03:55;;;;;;;14.20;9.47;;;7.80;99.90;;;;;;5008072;28;20616;-80
2021/10/28 06:06:20;;;;;;;10.90;8.20;;;7.90;99.90;;;;;;5012590;28;20266;-80
2021/10/28 06:08:47;;;;;;;12.23;8.87;;;7.90;99.90;;;;;;5011375;28;20598;-79
2021/10/28 06:11:15;;;;;;;13.70;9.50;;;7.90;99.90;;;;;;5010714;28;20206;-79
2021/10/28 06:13:44;;;;;;;16.07;8.67;;;8.00;99.90;;;;;;5012790;28;20973;-79
2021/10/28 06:16:10;;;;;;;15.17;9.40;;;8.00;99.90;;;;;;5011608;28;20437;-79
2021/10/28 06:21:01;;;;;;;11.70;8.50;;;8.10;99.90;;;;;;5010990;28;20437;-79
2021/10/28 06:23:39;;;;;;;10.30;8.93;;;8.10;99.90;;;;;;5012811;28;20214;-90
2021/10/28 06:26:05;;;;;;;11.20;8.50;;;8.10;99.90;;;;;;5012797;28;20175;-80
2021/10/28 06:28:32;;;;;;;12.07;10.20;;;8.10;99.90;;;;;;5013585;28;20433;-80
2021/10/28 06:30:58;;;;;;;12.83;8.93;;;8.20;99.90;;;;;;5012254;28;20523;-80
2021/10/28 06:33:29;;;;;;;14.40;10.47;;;8.20;99.90;;;;;;5012163;28;20432;-80
2021/10/28 06:35:56;;;;;;;14.90;10.50;;;8.20;99.90;;;;;;5007063;28;20436;-80
2021/10/28 06:38:22;;;;;;;12.40;9.73;;;8.20;99.90;;;;;;5008822;28;20470;-80
2021/10/28 06:40:48;;;;;;;13.33;9.43;;;8.20;99.90;;;;;;5009223;28;20437;-80
2021/10/28 06:43:14;;;;;;;11.10;9.93;;;8.20;99.90;;;;;;5012444;28;20425;-80
2021/10/28 06:45:40;;;;;;;11.10;9.20;;;8.20;99.90;;;;;;5011740;28;20180;-80
2021/10/28 06:48:06;;;;;;;16.93;10.97;;;8.20;99.90;;;;;;5009531;28;20528;-80
2021/10/28 06:53:44;;;;;;;14.50;9.60;;;8.30;99.90;;;;;;5005130;28;20465;-80
2021/10/28 07:04:23;;;;;;;11.10;9.60;;;8.40;99.90;;;;;;5012759;28;20475;-80
2021/10/28 07:06:49;;;;;;;15.67;9.77;;;8.40;99.90;;;;;;5011131;28;20458;-79
2021/10/28 07:09:20;;;;;;;15.10;11.07;;;8.40;99.90;;;;;;5010975;28;20193;-79
2021/10/28 07:12:04;;;;;;;13.67;10.20;;;8.50;99.90;;;;;;5010859;28;20422;-79
2021/10/28 07:14:30;;;;;;;17.77;10.27;;;8.50;99.90;;;;;;5009770;28;20417;-79
2021/10/28 07:27:49;;;;;;;14.57;11.83;;;8.70;99.90;;;;;;5013103;28;20262;-82
2021/10/28 08:05:37;;;;;;;13.77;10.87;;;9.50;99.90;;;;;;5013948;28;20424;-76
2021/10/28 08:24:03;;;;;;;18.40;11.40;;;10.00;99.90;;;;;;5009334;28;20433;-79
2021/10/28 08:29:33;;;;;;;17.30;11.80;;;10.10;99.90;;;;;;5007262;28;20418;-79
2021/10/28 08:32:06;;;;;;;14.33;10.67;;;10.20;99.90;;;;;;5010674;28;20899;-82
2021/10/28 08:34:35;;;;;;;14.13;11.00;;;10.30;99.90;;;;;;5005780;28;20520;-79
2021/10/28 08:37:21;;;;;;;13.30;10.60;;;10.40;99.90;;;;;;5008947;28;20444;-77
2021/10/28 08:39:51;;;;;;;16.43;10.27;;;10.40;99.90;;;;;;5010304;28;20424;-77
2021/10/28 08:42:21;;;;;;;13.80;10.17;;;10.50;99.90;;;;;;5005995;28;20528;-77
2021/10/28 08:44:58;;;;;;;16.57;11.10;;;10.50;99.90;;;;;;5002999;28;20441;-87
2021/10/28 08:47:26;;;;;;;12.80;9.97;;;10.60;99.90;;;;;;5007725;28;20529;-79
2021/10/28 08:49:57;;;;;;;13.73;9.53;;;10.60;99.90;;;;;;5006520;28;20449;-78
2021/10/28 09:19:26;;;;;;;10.70;9.03;;;11.00;99.90;;;;;;5005540;28;20452;-82
2021/10/28 09:24:26;;;;;;;10.37;6.80;;;11.90;99.90;;;;;;5011666;28;20471;-79
2021/10/28 09:29:48;;;;;;;8.53;6.40;;;12.20;99.90;;;;;;5010662;28;20837;-79
2021/10/28 09:32:38;;;;;;;6.03;5.40;;;12.30;99.90;;;;;;5012039;28;20476;-79
2021/10/28 09:51:17;;;;;;;6.37;4.70;;;13.30;99.90;;;;;;5013889;28;21135;-79
2021/10/28 09:59:51;;;;;;;5.00;4.57;;;13.90;99.90;;;;;;5012544;28;20679;-79
2021/10/28 10:04:55;;;;;;;7.33;3.93;;;13.90;99.90;;;;;;5014798;28;20397;-79
2021/10/28 10:07:21;;;;;;;3.97;3.57;;;14.00;99.90;;;;;;5011854;28;20847;-79
2021/10/28 10:09:48;;;;;;;4.00;3.20;;;14.10;99.90;;;;;;5005467;28;20429;-79
2021/10/28 10:12:15;;;;;;;3.87;3.50;;;14.30;99.90;;;;;;5014005;28;20902;-79
2021/10/28 10:14:42;;;;;;;3.27;3.07;;;14.40;99.90;;;;;;5010363;28;20919;-79
2021/10/28 10:17:08;;;;;;;3.67;3.40;;;14.50;99.90;;;;;;5012531;28;21106;-79
2021/10/28 10:19:44;;;;;;;3.97;3.30;;;14.70;99.90;;;;;;5006768;28;24188;-79
2021/10/28 10:30:06;;;;;;;3.17;2.97;;;15.00;99.90;;;;;;5010128;28;20422;-79
2021/10/28 11:25:44;;;;;;;2.00;1.80;;;16.80;99.90;;;;;;5038320;28;20536;-79
2021/10/28 11:30:23;;;;;;;6.17;2.60;;;17.00;99.90;;;;;;5020611;28;20425;-79
2021/10/28 12:01:27;;;;;;;4.13;2.03;;;17.10;99.90;;;;;;5012824;28;20836;-79
2021/10/28 12:25:13;;;;;;;1.83;1.70;;;18.10;99.90;;;;;;5008565;28;20486;-79
2021/10/28 12:45:20;;;;;;;2.03;1.83;;;18.30;99.90;;;;;;5007925;28;20432;-80
2021/10/28 12:48:09;;;;;;;1.87;1.77;;;18.30;99.90;;;;;;5004047;28;20438;-81
2021/10/28 12:54:01;;;;;;;2.17;1.93;;;18.30;99.90;;;;;;5006624;28;20524;-81
2021/10/28 13:51:36;;;;;;;1.57;1.50;;;18.30;99.90;;;;;;5013155;28;20437;-83
2021/10/28 13:59:52;;;;;;;1.73;1.63;;;18.10;99.90;;;;;;5009985;28;20460;-79
2021/10/28 14:22:17;;;;;;;2.03;1.87;;;17.60;99.90;;;;;;5011196;28;20916;-80
2021/10/28 14:28:13;;;;;;;1.50;1.40;;;17.50;99.90;;;;;;5010048;28;20437;-83
2021/10/28 15:00:47;;;;;;;2.07;1.90;;;16.30;99.90;;;;;;5028977;22;20510;-79
2021/10/28 15:03:04;;;;;;;3.70;1.90;;;16.20;99.90;;;;;;5003153;28;20505;-78
2021/10/28 15:35:25;;;;;;;2.40;2.20;;;15.20;99.90;;;;;;4999005;28;20432;-78
2021/10/28 15:40:32;;;;;;;2.07;1.97;;;15.00;99.90;;;;;;4996858;28;20493;-78
2021/10/28 15:59:26;;;;;;;2.50;1.80;;;14.30;99.90;;;;;;5001617;28;21043;-77
2021/10/28 16:23:34;;;;;;;2.40;2.30;;;13.30;99.90;;;;;;5003446;28;20476;-77
2021/10/28 16:26:02;;;;;;;2.30;2.10;;;13.20;99.90;;;;;;4993601;28;20898;-77
2021/10/28 16:28:29;;;;;;;2.20;2.10;;;13.10;99.90;;;;;;5007811;28;20183;-77
2021/10/28 16:30:55;;;;;;;2.30;2.10;;;13.00;99.90;;;;;;5009505;28;20824;-77
2021/10/28 16:33:21;;;;;;;2.20;2.10;;;12.90;99.90;;;;;;5000316;28;20439;-77
2021/10/28 16:35:46;;;;;;;2.73;2.50;;;12.80;99.90;;;;;;5009957;28;20409;-77
2021/10/28 16:38:12;;;;;;;2.40;2.30;;;12.70;99.90;;;;;;5007601;28;20217;-77
2021/10/28 16:40:39;;;;;;;2.30;2.10;;;12.60;99.90;;;;;;5001178;28;20170;-77
2021/10/28 16:43:04;;;;;;;3.40;2.60;;;12.50;99.90;;;;;;5010194;28;20249;-77
2021/10/28 16:45:30;;;;;;;2.10;2.00;;;12.40;99.90;;;;;;5011776;28;20401;-77
2021/10/28 16:47:56;;;;;;;2.50;2.30;;;12.30;99.90;;;;;;5011589;28;20178;-77
2021/10/28 16:50:22;;;;;;;2.20;2.00;;;12.20;99.90;;;;;;5011497;28;20455;-77
2021/10/28 16:52:47;;;;;;;3.83;2.50;;;12.10;99.90;;;;;;5011424;28;20181;-77
2021/10/28 16:55:13;;;;;;;2.20;2.10;;;12.00;99.90;;;;;;5011339;28;20668;-77
2021/10/28 16:57:39;;;;;;;2.10;2.00;;;12.00;99.90;;;;;;5011671;28;20752;-77
2021/10/28 17:00:07;;;;;;;2.83;2.20;;;12.00;99.90;;;;;;5011600;28;20210;-76
2021/10/28 17:02:33;;;;;;;2.83;2.63;;;12.00;99.90;;;;;;5011270;28;20421;-77
2021/10/28 17:04:59;;;;;;;2.30;2.20;;;11.90;99.90;;;;;;5010386;28;20418;-77
2021/10/28 17:07:25;;;;;;;3.40;2.50;;;11.80;99.90;;;;;;5012470;28;20185;-77
2021/10/28 17:09:52;;;;;;;2.83;2.33;;;11.80;99.90;;;;;;5012418;28;20183;-77
2021/10/28 17:12:19;;;;;;;2.90;2.70;;;11.80;99.90;;;;;;5011421;28;20413;-77
2021/10/28 17:14:45;;;;;;;2.60;2.50;;;11.70;99.90;;;;;;5011339;28;20758;-77
2021/10/28 17:17:11;;;;;;;2.73;2.60;;;11.70;99.90;;;;;;5010225;28;20398;-77
2021/10/28 17:19:37;;;;;;;3.50;2.67;;;11.70;99.90;;;;;;5011116;28;20890;-77
2021/10/28 17:22:03;;;;;;;2.50;2.30;;;11.70;99.90;;;;;;5011238;28;20498;-77
2021/10/28 17:24:38;;;;;;;2.57;2.43;;;11.60;99.90;;;;;;5011445;28;20418;-77
2021/10/28 17:27:05;;;;;;;2.57;2.40;;;11.60;99.90;;;;;;5010702;28;20496;-77
2021/10/28 17:29:31;;;;;;;2.10;2.00;;;11.50;99.90;;;;;;5013079;28;20926;-77
2021/10/28 17:31:57;;;;;;;2.10;2.00;;;11.50;99.90;;;;;;5012035;28;20413;-76
2021/10/28 17:34:26;;;;;;;2.50;2.40;;;11.40;99.90;;;;;;5009857;28;20913;-76
2021/10/28 17:36:53;;;;;;;2.40;2.20;;;11.30;99.90;;;;;;5011790;28;20592;-76
2021/10/28 17:39:24;;;;;;;2.40;2.30;;;11.30;99.90;;;;;;5011764;28;20542;-76
2021/10/28 17:41:51;;;;;;;2.20;2.10;;;11.30;99.90;;;;;;5010794;28;20405;-76
2021/10/28 17:44:20;;;;;;;4.10;2.63;;;11.20;99.90;;;;;;5009667;28;20536;-76
2021/10/28 17:46:46;;;;;;;3.30;2.50;;;11.10;99.90;;;;;;5012170;28;20475;-76
2021/10/28 17:49:11;;;;;;;4.00;2.43;;;11.00;99.90;;;;;;5012042;28;20498;-76
2021/10/28 17:51:38;;;;;;;2.43;2.33;;;10.90;99.90;;;;;;5009628;28;20726;-76
2021/10/28 17:54:09;;;;;;;2.63;2.43;;;10.80;99.90;;;;;;5011430;28;20170;-76
2021/10/28 17:56:37;;;;;;;5.63;2.40;;;10.80;99.90;;;;;;5011800;28;20402;-76
2021/10/28 17:59:04;;;;;;;2.47;2.37;;;10.70;99.90;;;;;;5009290;28;20595;-76
2021/10/28 18:01:31;;;;;;;2.80;2.50;;;10.60;99.90;;;;;;5012589;28;20934;-76
2021/10/28 18:04:00;;;;;;;3.10;2.90;;;10.50;99.90;;;;;;5014870;28;20746;-76
2021/10/28 18:06:29;;;;;;;3.17;2.87;;;10.50;99.90;;;;;;5015783;28;20742;-76
2021/10/28 18:08:55;;;;;;;3.27;2.83;;;10.40;99.90;;;;;;5014141;28;20411;-76
2021/10/28 18:11:21;;;;;;;3.97;3.17;;;10.30;99.90;;;;;;5014157;28;20842;-76
2021/10/28 18:13:49;;;;;;;3.17;2.87;;;10.20;99.90;;;;;;5013917;28;20516;-76
2021/10/28 18:16:15;;;;;;;3.60;3.37;;;10.20;99.90;;;;;;5014601;28;20646;-76
2021/10/28 18:18:41;;;;;;;3.27;3.07;;;10.10;99.90;;;;;;5015024;28;20453;-76
2021/10/28 18:21:07;;;;;;;3.03;2.83;;;10.00;99.90;;;;;;5014433;28;20412;-76
2021/10/28 18:23:34;;;;;;;3.40;3.20;;;9.90;99.90;;;;;;5014757;28;20182;-76
2021/10/28 18:26:01;;;;;;;3.00;2.80;;;9.90;99.90;;;;;;5014362;28;20413;-76
2021/10/28 18:28:27;;;;;;;3.27;3.07;;;9.80;99.90;;;;;;5013410;28;20487;-76
2021/10/28 18:30:53;;;;;;;3.47;3.00;;;9.70;99.90;;;;;;5013824;28;20459;-76
2021/10/28 18:33:19;;;;;;;4.10;3.80;;;9.60;99.90;;;;;;5014404;28;20453;-76
2021/10/28 18:35:46;;;;;;;2.73;2.63;;;9.60;99.90;;;;;;5014968;28;20418;-76
2021/10/28 18:38:12;;;;;;;2.80;2.60;;;9.50;99.90;;;;;;5012862;28;20212;-76
2021/10/28 18:40:39;;;;;;;6.53;3.30;;;9.50;99.90;;;;;;5014686;28;20475;-76
2021/10/28 18:43:05;;;;;;;3.00;2.63;;;9.40;99.90;;;;;;5012606;28;20859;-76
2021/10/28 18:45:32;;;;;;;2.97;2.77;;;9.30;99.90;;;;;;5014621;28;20249;-76
2021/10/28 18:47:58;;;;;;;3.47;2.93;;;9.30;99.90;;;;;;5013303;28;20233;-76
2021/10/28 18:50:24;;;;;;;3.83;3.13;;;9.30;99.90;;;;;;5013900;28;20413;-76
2021/10/28 18:52:50;;;;;;;3.60;3.30;;;9.20;99.90;;;;;;5014062;28;20463;-76
2021/10/28 18:55:16;;;;;;;3.90;3.43;;;9.20;99.90;;;;;;5015210;28;20514;-76
2021/10/28 18:57:42;;;;;;;3.27;3.00;;;9.20;99.90;;;;;;5013625;28;20206;-76
2021/10/28 19:00:09;;;;;;;4.20;3.90;;;9.20;99.90;;;;;;5012754;28;20425;-76
2021/10/28 19:02:36;;;;;;;4.07;3.77;;;9.20;99.90;;;;;;5013531;28;20516;-76
2021/10/28 19:05:04;;;;;;;4.60;4.20;;;9.20;99.90;;;;;;5012399;28;20417;-76
2021/10/28 19:07:30;;;;;;;4.83;4.40;;;9.30;99.90;;;;;;5012699;28;20437;-76
2021/10/28 19:09:56;;;;;;;4.20;3.90;;;9.40;99.90;;;;;;5005458;28;20445;-76
2021/10/28 19:12:23;;;;;;;4.50;4.10;;;9.50;99.90;;;;;;5013932;28;20178;-76
2021/10/28 19:14:48;;;;;;;3.80;3.50;;;9.50;99.90;;;;;;5014443;28;20478;-76
2021/10/28 19:17:14;;;;;;;4.23;3.70;;;9.50;99.90;;;;;;5011741;28;20467;-76
2021/10/28 19:19:41;;;;;;;4.17;3.97;;;9.50;99.90;;;;;;5013139;28;20253;-76
2021/10/28 19:22:08;;;;;;;4.40;4.07;;;9.50;99.90;;;;;;5012553;28;20739;-76
2021/10/28 19:24:35;;;;;;;4.40;4.10;;;9.50;99.90;;;;;;5013384;28;20413;-76
2021/10/28 19:27:02;;;;;;;4.00;3.67;;;9.50;99.90;;;;;;5013489;28;20418;-76
2021/10/28 19:29:28;;;;;;;4.00;3.60;;;9.40;99.90;;;;;;5013761;28;20414;-76
2021/10/28 19:32:08;;;;;;;3.90;3.57;;;9.40;99.90;;;;;;5013984;28;20471;-76
2021/10/28 19:34:39;;;;;;;5.87;4.90;;;9.40;99.90;;;;;;5012079;28;20417;-76
2021/10/28 19:42:17;;;;;;;4.80;4.30;;;9.30;99.90;;;;;;5013260;28;20512;-76
2021/10/28 19:47:27;;;;;;;5.70;5.20;;;9.20;99.90;;;;;;5013214;28;20517;-76
2021/10/28 19:49:53;;;;;;;4.40;4.10;;;9.20;99.90;;;;;;5012938;28;20402;-76
2021/10/28 19:52:18;;;;;;;5.03;4.60;;;9.20;99.90;;;;;;5011376;28;20597;-76
2021/10/28 19:54:47;;;;;;;5.30;4.80;;;9.20;99.90;;;;;;5013536;28;20609;-76
2021/10/28 19:57:22;;;;;;;5.97;5.47;;;9.20;99.90;;;;;;5012602;28;20262;-76
2021/10/28 19:59:53;;;;;;;4.77;4.37;;;9.20;99.90;;;;;;5012703;28;20498;-76
2021/10/28 20:02:28;;;;;;;4.90;4.50;;;9.10;99.90;;;;;;5012727;28;20448;-76
2021/10/28 20:13:11;;;;;;;10.33;5.30;;;9.00;99.90;;;;;;5008995;28;20765;-76
2021/10/28 20:13:16;;;;;;;6.53;5.83;;;8.90;99.90;;;;;;5011390;28;20171;-76
2021/10/28 20:21:11;;;;;;;7.00;5.70;;;8.80;99.90;;;;;;5013136;28;20921;-76
2021/10/28 20:23:39;;;;;;;6.30;5.73;;;8.80;99.90;;;;;;5012091;28;20872;-76
2021/10/28 20:26:06;;;;;;;5.90;5.40;;;8.70;99.90;;;;;;5010337;28;20483;-76
2021/10/28 20:28:39;;;;;;;6.37;5.87;;;8.70;99.90;;;;;;5012313;28;20417;-76
2021/10/28 20:31:06;;;;;;;6.47;5.87;;;8.60;99.90;;;;;;5011667;28;20799;-76
2021/10/28 20:33:36;;;;;;;7.47;6.50;;;8.60;99.90;;;;;;5012961;28;20414;-76
2021/10/28 20:38:36;;;;;;;6.10;5.50;;;8.50;99.90;;;;;;5011151;28;20444;-76
2021/10/28 20:41:02;;;;;;;4.70;4.30;;;8.40;99.90;;;;;;5012250;28;20843;-76
2021/10/28 20:43:28;;;;;;;5.23;4.70;;;8.40;99.90;;;;;;5010984;28;20870;-76
2021/10/28 20:45:54;;;;;;;5.20;4.73;;;8.30;99.90;;;;;;5012461;28;20414;-76
2021/10/28 20:48:20;;;;;;;5.23;4.73;;;8.30;99.90;;;;;;5010024;28;20175;-76
2021/10/28 20:50:45;;;;;;;4.73;4.37;;;8.20;99.90;;;;;;5011294;28;20545;-76
2021/10/28 20:53:11;;;;;;;4.83;4.33;;;8.20;99.90;;;;;;5011531;28;20175;-75
2021/10/28 20:55:37;;;;;;;4.80;4.27;;;8.10;99.90;;;;;;5012713;28;20174;-76
2021/10/28 20:58:03;;;;;;;4.40;3.97;;;8.10;99.90;;;;;;5011234;28;20281;-76
2021/10/28 21:00:29;;;;;;;4.27;3.93;;;8.00;99.90;;;;;;5009384;28;20201;-76
2021/10/28 21:02:59;;;;;;;4.40;4.10;;;8.00;99.90;;;;;;5012000;28;20166;-76
2021/10/28 21:05:25;;;;;;;4.40;4.00;;;7.90;99.90;;;;;;5012239;28;20412;-76
2021/10/28 21:07:52;;;;;;;4.83;4.43;;;7.90;99.90;;;;;;5010790;28;20439;-76
2021/10/28 21:10:23;;;;;;;4.80;4.03;;;7.80;99.90;;;;;;5012352;28;20891;-76
2021/10/28 21:12:49;;;;;;;4.73;3.80;;;7.80;99.90;;;;;;5010063;28;20883;-75
2021/10/28 21:15:14;;;;;;;4.50;4.20;;;7.80;99.90;;;;;;5009513;28;20424;-76
2021/10/28 21:17:41;;;;;;;4.17;3.87;;;7.70;99.90;;;;;;5010378;28;20194;-75
2021/10/28 21:20:08;;;;;;;4.57;4.17;;;7.70;99.90;;;;;;5012088;28;20257;-76
2021/10/28 21:22:37;;;;;;;6.03;4.43;;;7.60;99.90;;;;;;5011470;28;20416;-75
2021/10/28 21:25:05;;;;;;;5.10;4.70;;;7.60;99.90;;;;;;5011504;28;20427;-75
2021/10/28 21:27:30;;;;;;;4.37;4.00;;;7.50;99.90;;;;;;5011083;28;20496;-76
2021/10/28 21:29:56;;;;;;;4.20;3.90;;;7.50;99.90;;;;;;5010463;28;20865;-75
2021/10/28 21:32:22;;;;;;;6.53;4.50;;;7.40;99.90;;;;;;5011531;28;20500;-76
2021/10/28 21:34:47;;;;;;;4.47;4.07;;;7.40;99.90;;;;;;5012333;28;20201;-75
2021/10/28 21:37:15;;;;;;;5.30;4.87;;;7.40;99.90;;;;;;5015174;28;20185;-76
2021/10/28 21:39:41;;;;;;;5.07;4.63;;;7.30;99.90;;;;;;5015089;28;21154;-76
2021/10/28 21:42:09;;;;;;;5.03;4.60;;;7.30;99.90;;;;;;5016097;28;20741;-76
2021/10/28 21:44:36;;;;;;;4.77;4.37;;;7.30;99.90;;;;;;5015251;28;20468;-76
2021/10/28 21:47:03;;;;;;;5.57;5.00;;;7.20;99.90;;;;;;5015303;28;20413;-75
2021/10/28 21:49:29;;;;;;;5.30;4.90;;;7.20;99.90;;;;;;5012487;28;20413;-76
2021/10/28 21:52:07;;;;;;;7.67;4.43;;;7.20;99.90;;;;;;5014997;28;20512;-75
2021/10/28 21:54:40;;;;;;;5.33;4.83;;;7.30;99.90;;;;;;5013718;28;20428;-75